createdAt,value
2022-10-20T00:00:07.902Z,0.00
2022-10-20T00:01:10.123Z,0.00
2022-10-20T00:02:08.494Z,0.00
2022-10-20T00:03:08.776Z,0.00
2022-10-20T00:04:10.957Z,0.00
2022-10-20T00:05:09.334Z,0.00
2022-10-20T00:06:10.088Z,0.00
2022-10-20T00:07:09.921Z,0.00
2022-10-20T00:08:11.178Z,0.00
2022-10-20T00:09:12.463Z,0.00
2022-10-20T00:10:10.813Z,0.00
2022-10-20T00:11:11.104Z,0.00
2022-10-20T00:12:11.384Z,0.00
2022-10-20T00:13:13.575Z,0.00
2022-10-20T00:14:13.759Z,0.00
2022-10-20T00:15:12.248Z,0.00
2022-10-20T00:16:12.731Z,0.00
2022-10-20T00:17:12.855Z,0.00
2022-10-20T00:18:13.135Z,0.00
2022-10-20T00:19:13.419Z,0.00
2022-10-20T00:21:16.743Z,0.00
2022-10-20T00:22:14.254Z,0.00
2022-10-20T00:23:14.547Z,0.00
2022-10-20T00:24:15.785Z,0.00
2022-10-20T00:25:15.942Z,0.00
2022-10-20T00:26:17.310Z,0.00
2022-10-20T00:27:16.521Z,0.00
2022-10-20T00:28:15.985Z,0.00
2022-10-20T00:30:21.350Z,0.00
2022-10-20T00:31:17.861Z,0.00
2022-10-20T00:32:19.041Z,0.00
2022-10-20T00:33:19.251Z,0.00
2022-10-20T00:34:18.664Z,0.00
2022-10-20T00:35:19.917Z,0.00
2022-10-20T00:36:20.166Z,0.00
2022-10-20T00:37:18.546Z,0.00
2022-10-20T00:38:20.738Z,0.00
2022-10-20T00:39:19.129Z,0.00
2022-10-20T00:40:19.417Z,0.00
2022-10-20T00:41:19.780Z,0.00
2022-10-20T00:42:21.938Z,0.00
2022-10-20T00:43:22.132Z,0.00
2022-10-20T00:44:20.493Z,0.00
2022-10-20T00:45:20.785Z,0.00
2022-10-20T00:46:21.066Z,0.00
2022-10-20T00:47:24.716Z,0.00
2022-10-20T00:48:21.633Z,0.00
2022-10-20T00:49:22.852Z,0.00
2022-10-20T00:50:22.201Z,0.00
2022-10-20T00:51:23.941Z,0.00
2022-10-20T00:52:22.857Z,0.00
2022-10-20T00:53:24.992Z,0.00
2022-10-20T00:54:25.318Z,0.00
2022-10-20T00:55:23.820Z,0.00
2022-10-20T00:56:24.109Z,0.00
2022-10-20T00:57:25.421Z,0.00
2022-10-20T00:58:26.588Z,0.00
2022-10-20T00:59:24.960Z,0.00
2022-10-20T01:00:27.136Z,0.00
2022-10-20T01:01:25.572Z,0.00
2022-10-20T01:02:26.730Z,0.00
2022-10-20T01:03:26.069Z,0.00
2022-10-20T01:04:29.201Z,0.00
2022-10-20T01:05:27.459Z,0.00
2022-10-20T01:06:27.620Z,0.00
2022-10-20T01:07:27.146Z,0.00
2022-10-20T01:08:28.434Z,0.00
2022-10-20T01:09:29.612Z,0.00
2022-10-20T01:10:29.032Z,0.00
2022-10-20T01:11:29.203Z,0.00
2022-10-20T01:12:29.672Z,0.00
2022-10-20T01:13:28.892Z,0.00
2022-10-20T01:14:31.067Z,0.00
2022-10-20T01:15:30.358Z,0.00
2022-10-20T01:16:30.502Z,0.00
2022-10-20T01:17:31.464Z,0.00
2022-10-20T01:18:31.275Z,0.00
2022-10-20T01:19:32.505Z,0.00
2022-10-20T01:20:30.873Z,0.00
2022-10-20T01:21:32.069Z,0.00
2022-10-20T01:22:31.475Z,0.00
2022-10-20T01:23:31.757Z,0.00
2022-10-20T01:24:33.967Z,0.00
2022-10-20T01:25:32.330Z,0.00
2022-10-20T01:26:32.680Z,0.00
2022-10-20T01:27:33.314Z,0.00
2022-10-20T01:28:33.494Z,0.00
2022-10-20T01:29:35.438Z,0.00
2022-10-20T01:30:33.799Z,0.00
2022-10-20T01:31:34.964Z,0.00
2022-10-20T01:32:35.364Z,0.00
2022-10-20T01:33:34.726Z,0.00
2022-10-20T01:34:35.008Z,0.00
2022-10-20T01:35:37.241Z,0.00
2022-10-20T01:36:37.439Z,0.00
2022-10-20T01:37:52.435Z,0.00
2022-10-20T01:38:37.196Z,0.00
2022-10-20T01:39:36.426Z,0.00
2022-10-20T01:40:38.605Z,0.00
2022-10-20T01:41:36.980Z,0.00
2022-10-20T01:42:39.270Z,0.00
2022-10-20T01:43:37.512Z,0.00
2022-10-20T01:44:37.800Z,0.00
2022-10-20T01:45:38.084Z,0.00
2022-10-20T01:46:38.365Z,0.00
2022-10-20T01:47:40.627Z,0.00
2022-10-20T01:48:39.001Z,0.00
2022-10-20T01:49:39.293Z,0.00
2022-10-20T01:50:39.586Z,0.00
2022-10-20T01:52:42.791Z,0.00
2022-10-20T01:53:40.438Z,0.00
2022-10-20T01:54:40.762Z,0.00
2022-10-20T01:55:41.084Z,0.00
2022-10-20T01:56:43.256Z,0.00
2022-10-20T01:57:42.437Z,0.00
2022-10-20T01:58:41.917Z,0.00
2022-10-20T01:59:42.224Z,0.00
2022-10-20T02:00:42.719Z,0.00
2022-10-20T02:01:44.883Z,0.00
2022-10-20T02:02:44.100Z,0.00
2022-10-20T02:03:43.437Z,0.00
2022-10-20T02:04:46.582Z,0.00
2022-10-20T02:05:43.965Z,0.00
2022-10-20T02:06:46.153Z,0.00
2022-10-20T02:07:46.370Z,0.00
2022-10-20T02:08:45.776Z,0.00
2022-10-20T02:09:45.166Z,0.00
2022-10-20T02:10:45.428Z,0.00
2022-10-20T02:11:47.626Z,0.00
2022-10-20T02:12:46.888Z,0.00
2022-10-20T02:13:46.246Z,0.00
2022-10-20T02:14:48.434Z,0.00
2022-10-20T02:15:46.809Z,0.00
2022-10-20T02:16:48.996Z,0.00
2022-10-20T02:17:48.395Z,0.00
2022-10-20T02:18:47.710Z,0.00
2022-10-20T02:19:49.828Z,0.00
2022-10-20T02:20:48.187Z,0.00
2022-10-20T02:21:48.484Z,0.00
2022-10-20T02:22:49.765Z,0.00
2022-10-20T02:23:49.119Z,0.00
2022-10-20T02:24:51.305Z,0.00
2022-10-20T02:25:49.690Z,0.00
2022-10-20T02:26:49.991Z,0.00
2022-10-20T02:27:51.786Z,0.00
2022-10-20T02:28:50.716Z,0.00
2022-10-20T02:29:52.792Z,0.00
2022-10-20T02:30:51.167Z,0.00
2022-10-20T02:31:51.461Z,0.00
2022-10-20T02:32:52.750Z,0.00
2022-10-20T02:33:53.973Z,0.00
2022-10-20T02:34:54.147Z,0.00
2022-10-20T02:35:52.645Z,0.00
2022-10-20T02:36:52.916Z,0.00
2022-10-20T02:37:55.163Z,0.00
2022-10-20T02:38:53.522Z,0.00
2022-10-20T02:39:55.707Z,0.00
2022-10-20T02:40:55.904Z,0.00
2022-10-20T02:41:54.398Z,0.00
2022-10-20T02:42:58.063Z,0.00
2022-10-20T02:43:54.957Z,0.00
2022-10-20T02:44:55.244Z,0.00
2022-10-20T02:45:55.531Z,0.00
2022-10-20T02:46:55.818Z,0.00
2022-10-20T02:47:59.001Z,0.00
2022-10-20T02:48:56.403Z,0.00
2022-10-20T02:49:56.679Z,0.00
2022-10-20T02:50:56.980Z,0.00
2022-10-20T02:51:59.174Z,0.00
2022-10-20T02:52:58.409Z,0.00
2022-10-20T02:53:57.769Z,0.00
2022-10-20T02:54:58.051Z,0.00
2022-10-20T02:56:01.167Z,0.00
2022-10-20T02:57:01.343Z,0.00
2022-10-20T02:57:59.020Z,0.00
2022-10-20T02:58:59.303Z,0.00
2022-10-20T02:59:59.604Z,0.00
2022-10-20T03:00:59.888Z,0.00
2022-10-20T03:02:02.142Z,0.00
2022-10-20T03:03:01.284Z,0.00
2022-10-20T03:04:02.689Z,0.00
2022-10-20T03:05:01.049Z,0.00
2022-10-20T03:06:03.244Z,0.00
2022-10-20T03:07:03.421Z,0.00
2022-10-20T03:08:02.860Z,0.00
2022-10-20T03:09:02.236Z,0.00
2022-10-20T03:10:02.491Z,0.00
2022-10-20T03:11:02.956Z,0.00
2022-10-20T03:12:04.961Z,0.00
2022-10-20T03:13:04.315Z,0.00
2022-10-20T03:14:03.655Z,0.00
2022-10-20T03:15:03.944Z,0.00
2022-10-20T03:16:06.102Z,0.00
2022-10-20T03:17:06.293Z,0.00
2022-10-20T03:18:05.733Z,0.00
2022-10-20T03:19:07.172Z,0.00
2022-10-20T03:20:05.393Z,0.00
2022-10-20T03:21:06.468Z,0.00
2022-10-20T03:22:05.957Z,0.00
2022-10-20T03:23:09.594Z,0.00
2022-10-20T03:24:06.485Z,0.00
2022-10-20T03:25:06.775Z,0.00
2022-10-20T03:26:07.069Z,0.00
2022-10-20T03:27:09.264Z,0.00
2022-10-20T03:28:08.621Z,0.00
2022-10-20T03:29:07.973Z,0.00
2022-10-20T03:30:08.295Z,0.00
2022-10-20T03:31:08.584Z,0.00
2022-10-20T03:32:11.770Z,0.00
2022-10-20T03:33:10.182Z,0.00
2022-10-20T03:34:09.407Z,0.00
2022-10-20T03:35:09.686Z,0.00
2022-10-20T03:36:09.970Z,0.00
2022-10-20T03:37:12.146Z,0.00
2022-10-20T03:38:11.477Z,0.00
2022-10-20T03:39:10.821Z,0.00
2022-10-20T03:40:11.097Z,0.00
2022-10-20T03:41:11.384Z,0.00
2022-10-20T03:42:13.574Z,0.00
2022-10-20T03:43:13.768Z,0.00
2022-10-20T03:44:12.243Z,0.00
2022-10-20T03:45:14.939Z,0.00
2022-10-20T03:46:13.854Z,0.00
2022-10-20T03:47:15.046Z,0.00
2022-10-20T03:48:15.228Z,0.00
2022-10-20T03:49:13.722Z,0.00
2022-10-20T03:50:14.004Z,0.00
2022-10-20T03:51:14.295Z,0.00
2022-10-20T03:52:16.474Z,0.00
2022-10-20T03:53:14.837Z,0.00
2022-10-20T03:54:15.128Z,0.00
2022-10-20T03:55:15.415Z,0.00
2022-10-20T03:56:15.697Z,0.00
2022-10-20T03:57:15.995Z,0.00
2022-10-20T03:58:18.176Z,0.00
2022-10-20T03:59:16.525Z,0.00
2022-10-20T04:00:16.802Z,0.00
2022-10-20T04:01:17.148Z,0.00
2022-10-20T04:02:17.318Z,0.00
2022-10-20T04:03:19.500Z,0.00
2022-10-20T04:04:19.719Z,0.00
2022-10-20T04:05:18.209Z,0.00
2022-10-20T04:06:18.486Z,0.00
2022-10-20T04:07:18.775Z,0.00
2022-10-20T04:08:20.948Z,0.00
2022-10-20T04:09:20.299Z,0.00
2022-10-20T04:10:19.647Z,0.00
2022-10-20T04:11:19.926Z,0.00
2022-10-20T04:12:20.216Z,0.00
2022-10-20T04:13:22.400Z,0.00
2022-10-20T04:14:24.070Z,0.00
2022-10-20T04:15:21.085Z,0.00
2022-10-20T04:16:21.373Z,0.00
2022-10-20T04:17:21.657Z,0.00
2022-10-20T04:18:23.857Z,0.00
2022-10-20T04:19:24.041Z,0.00
2022-10-20T04:20:22.525Z,0.00
2022-10-20T04:21:22.819Z,0.00
2022-10-20T04:22:23.088Z,0.00
2022-10-20T04:23:24.329Z,0.00
2022-10-20T04:24:25.551Z,0.00
2022-10-20T04:25:23.917Z,0.00
2022-10-20T04:26:25.071Z,0.00
2022-10-20T04:27:25.477Z,0.00
2022-10-20T04:28:24.825Z,0.00
2022-10-20T04:29:27.019Z,0.00
2022-10-20T04:30:25.369Z,0.00
2022-10-20T04:31:25.655Z,0.00
2022-10-20T04:32:25.932Z,0.00
2022-10-20T04:33:29.561Z,0.00
2022-10-20T04:34:26.451Z,0.00
2022-10-20T04:35:26.740Z,0.00
2022-10-20T04:36:27.020Z,0.00
2022-10-20T04:37:30.651Z,0.00
2022-10-20T04:38:27.539Z,0.00
2022-10-20T04:39:29.730Z,0.00
2022-10-20T04:40:29.054Z,0.00
2022-10-20T04:41:28.395Z,0.00
2022-10-20T04:42:28.697Z,0.00
2022-10-20T04:43:28.973Z,0.00
2022-10-20T04:44:32.604Z,0.00
2022-10-20T04:45:29.492Z,0.00
2022-10-20T04:46:30.017Z,0.00
2022-10-20T04:47:30.021Z,0.00
2022-10-20T04:48:30.300Z,0.00
2022-10-20T04:49:31.508Z,0.00
2022-10-20T04:50:30.841Z,0.00
2022-10-20T04:51:33.030Z,0.00
2022-10-20T04:52:31.392Z,0.00
2022-10-20T04:53:32.712Z,0.00
2022-10-20T04:54:33.857Z,0.00
2022-10-20T04:55:34.039Z,0.00
2022-10-20T04:56:32.529Z,0.00
2022-10-20T04:57:33.923Z,0.00
2022-10-20T04:58:33.121Z,0.00
2022-10-20T04:59:35.293Z,0.00
2022-10-20T05:00:35.478Z,0.00
2022-10-20T05:01:34.024Z,0.00
2022-10-20T05:02:34.253Z,0.00
2022-10-20T05:03:34.542Z,0.00
2022-10-20T05:04:36.727Z,0.00
2022-10-20T05:05:35.152Z,0.00
2022-10-20T05:06:37.336Z,0.00
2022-10-20T05:07:35.952Z,0.00
2022-10-20T05:08:36.308Z,0.00
2022-10-20T05:09:36.258Z,0.00
2022-10-20T05:10:36.820Z,0.00
2022-10-20T05:11:38.739Z,0.00
2022-10-20T05:12:37.370Z,0.00
2022-10-20T05:13:38.213Z,0.00
2022-10-20T05:14:39.574Z,0.00
2022-10-20T05:15:37.934Z,0.00
2022-10-20T05:16:40.114Z,0.00
2022-10-20T05:17:38.495Z,0.00
2022-10-20T05:18:38.773Z,0.00
2022-10-20T05:19:39.075Z,0.00
2022-10-20T05:20:57.182Z,0.00
2022-10-20T05:22:40.051Z,0.00
2022-10-20T05:23:41.155Z,0.00
2022-10-20T05:24:40.598Z,0.00
2022-10-20T05:25:40.764Z,0.00
2022-10-20T05:26:42.934Z,0.00
2022-10-20T05:27:43.093Z,0.00
2022-10-20T05:28:43.273Z,0.00
2022-10-20T05:29:41.882Z,0.00
2022-10-20T05:31:44.365Z,0.00
2022-10-20T05:32:42.738Z,0.00
2022-10-20T05:33:44.921Z,0.00
2022-10-20T05:34:43.296Z,0.00
2022-10-20T05:35:44.557Z,0.00
2022-10-20T05:36:43.902Z,0.00
2022-10-20T05:37:44.202Z,0.00
2022-10-20T05:38:46.383Z,0.00
2022-10-20T05:39:49.552Z,0.00
2022-10-20T05:40:45.056Z,0.00
2022-10-20T05:41:46.326Z,0.00
2022-10-20T05:42:45.692Z,0.00
2022-10-20T05:43:47.912Z,0.00
2022-10-20T05:44:46.314Z,0.00
2022-10-20T05:45:48.474Z,5.62
2022-10-20T05:46:47.847Z,5.62
2022-10-20T05:47:50.518Z,5.62
2022-10-20T05:48:47.430Z,5.62
2022-10-20T05:49:47.753Z,5.62
2022-10-20T05:50:48.062Z,5.62
2022-10-20T05:51:50.437Z,5.62
2022-10-20T05:52:50.467Z,5.62
2022-10-20T05:53:48.989Z,11.25
2022-10-20T05:54:49.357Z,11.25
2022-10-20T05:55:49.618Z,11.25
2022-10-20T05:56:50.726Z,16.88
2022-10-20T05:57:52.146Z,16.88
2022-10-20T05:58:50.559Z,16.88
2022-10-20T05:59:50.904Z,16.88
2022-10-20T06:00:51.207Z,16.88
2022-10-20T06:01:52.483Z,22.50
2022-10-20T06:02:53.835Z,22.50
2022-10-20T06:03:52.102Z,22.50
2022-10-20T06:04:55.791Z,22.50
2022-10-20T06:05:52.716Z,28.12
2022-10-20T06:06:53.106Z,28.12
2022-10-20T06:07:55.219Z,28.12
2022-10-20T06:08:53.795Z,33.75
2022-10-20T06:09:54.854Z,33.75
2022-10-20T06:10:55.013Z,39.38
2022-10-20T06:11:54.404Z,39.38
2022-10-20T06:12:54.743Z,45.00
2022-10-20T06:13:56.926Z,45.00
2022-10-20T06:14:56.179Z,50.62
2022-10-20T06:15:56.325Z,50.62
2022-10-20T06:16:55.722Z,56.25
2022-10-20T06:17:56.054Z,56.25
2022-10-20T06:18:58.230Z,61.88
2022-10-20T06:19:58.500Z,61.88
2022-10-20T06:20:56.910Z,67.50
2022-10-20T06:22:02.508Z,73.12
2022-10-20T06:22:58.492Z,73.12
2022-10-20T06:23:59.680Z,78.75
2022-10-20T06:24:58.521Z,78.75
2022-10-20T06:25:58.407Z,84.38
2022-10-20T06:26:58.734Z,84.38
2022-10-20T06:27:59.065Z,90.00
2022-10-20T06:29:04.004Z,90.00
2022-10-20T06:30:02.629Z,95.62
2022-10-20T06:31:00.025Z,101.25
2022-10-20T06:32:02.713Z,101.25
2022-10-20T06:33:00.588Z,106.88
2022-10-20T06:34:00.921Z,112.50
2022-10-20T06:35:02.210Z,112.50
2022-10-20T06:36:01.468Z,112.50
2022-10-20T06:37:01.795Z,118.12
2022-10-20T06:38:02.140Z,123.75
2022-10-20T06:39:02.474Z,129.38
2022-10-20T06:40:04.687Z,135.00
2022-10-20T06:41:03.083Z,135.00
2022-10-20T06:42:05.906Z,140.62
2022-10-20T06:43:05.714Z,146.25
2022-10-20T06:44:03.900Z,146.25
2022-10-20T06:45:05.217Z,151.88
2022-10-20T06:46:04.473Z,151.88
2022-10-20T06:47:04.795Z,157.50
2022-10-20T06:48:05.148Z,157.50
2022-10-20T06:49:07.298Z,163.12
2022-10-20T06:50:05.865Z,168.75
2022-10-20T06:51:06.021Z,168.75
2022-10-20T06:52:06.417Z,174.38
2022-10-20T06:53:06.576Z,180.00
2022-10-20T06:54:08.830Z,180.00
2022-10-20T06:55:08.194Z,185.62
2022-10-20T06:56:08.356Z,185.62
2022-10-20T06:57:07.749Z,191.25
2022-10-20T06:58:08.939Z,191.25
2022-10-20T06:59:10.261Z,191.25
2022-10-20T07:00:09.508Z,196.88
2022-10-20T07:01:10.986Z,196.88
2022-10-20T07:02:11.135Z,202.50
2022-10-20T07:03:09.374Z,202.50
2022-10-20T07:04:11.568Z,202.50
2022-10-20T07:05:10.964Z,202.50
2022-10-20T07:06:11.185Z,202.50
2022-10-20T07:07:12.414Z,202.50
2022-10-20T07:08:10.816Z,208.12
2022-10-20T07:09:11.163Z,208.12
2022-10-20T07:10:12.523Z,213.75
2022-10-20T07:11:11.771Z,213.75
2022-10-20T07:12:13.971Z,219.38
2022-10-20T07:13:12.395Z,225.00
2022-10-20T07:14:12.606Z,230.62
2022-10-20T07:15:13.962Z,236.25
2022-10-20T07:16:13.227Z,241.88
2022-10-20T07:17:13.563Z,241.88
2022-10-20T07:18:14.755Z,247.50
2022-10-20T07:19:15.957Z,253.12
2022-10-20T07:20:15.445Z,258.75
2022-10-20T07:21:14.714Z,253.12
2022-10-20T07:22:15.047Z,253.12
2022-10-20T07:23:17.223Z,253.12
2022-10-20T07:24:15.683Z,264.38
2022-10-20T07:25:17.894Z,264.38
2022-10-20T07:26:16.390Z,270.00
2022-10-20T07:27:17.152Z,275.62
2022-10-20T07:28:16.915Z,286.88
2022-10-20T07:29:19.095Z,286.88
2022-10-20T07:30:17.517Z,281.25
2022-10-20T07:31:19.702Z,275.62
2022-10-20T07:32:17.986Z,286.88
2022-10-20T07:33:18.551Z,292.50
2022-10-20T07:34:27.505Z,303.75
2022-10-20T07:35:20.741Z,309.38
2022-10-20T07:36:21.144Z,320.62
2022-10-20T07:37:19.545Z,326.25
2022-10-20T07:38:19.929Z,337.50
2022-10-20T07:39:22.070Z,343.12
2022-10-20T07:40:21.309Z,348.75
2022-10-20T07:41:22.279Z,348.75
2022-10-20T07:42:21.045Z,360.00
2022-10-20T07:43:21.388Z,365.62
2022-10-20T07:44:21.740Z,371.25
2022-10-20T07:45:22.854Z,376.88
2022-10-20T07:46:24.196Z,388.12
2022-10-20T07:47:22.478Z,393.75
2022-10-20T07:48:24.660Z,393.75
2022-10-20T07:50:27.764Z,399.38
2022-10-20T07:51:23.705Z,393.75
2022-10-20T07:52:24.048Z,393.75
2022-10-20T07:53:24.374Z,399.38
2022-10-20T07:54:26.158Z,410.62
2022-10-20T07:55:38.787Z,427.50
2022-10-20T07:56:26.202Z,433.12
2022-10-20T07:57:26.307Z,433.12
2022-10-20T07:58:27.667Z,433.12
2022-10-20T07:59:25.969Z,438.75
2022-10-20T08:00:27.738Z,455.62
2022-10-20T08:01:28.449Z,466.88
2022-10-20T08:02:26.825Z,478.12
2022-10-20T08:03:27.169Z,483.75
2022-10-20T08:04:27.520Z,489.38
2022-10-20T08:05:29.693Z,483.75
2022-10-20T08:06:28.008Z,483.75
2022-10-20T08:07:28.218Z,489.38
2022-10-20T08:08:28.470Z,495.00
2022-10-20T08:09:28.765Z,506.25
2022-10-20T08:10:30.846Z,517.50
2022-10-20T08:11:30.086Z,517.50
2022-10-20T08:12:31.461Z,523.12
2022-10-20T08:13:29.748Z,523.12
2022-10-20T08:14:29.980Z,528.75
2022-10-20T08:15:33.200Z,534.38
2022-10-20T08:16:30.615Z,540.00
2022-10-20T08:17:31.099Z,545.62
2022-10-20T08:18:34.907Z,556.88
2022-10-20T08:19:32.793Z,556.88
2022-10-20T08:20:34.727Z,551.25
2022-10-20T08:21:32.018Z,556.88
2022-10-20T08:22:32.379Z,556.88
2022-10-20T08:23:32.604Z,562.50
2022-10-20T08:24:32.833Z,562.50
2022-10-20T08:25:35.014Z,562.50
2022-10-20T08:26:33.427Z,568.12
2022-10-20T08:27:33.653Z,573.75
2022-10-20T08:28:37.294Z,579.38
2022-10-20T08:29:36.037Z,585.00
2022-10-20T08:30:34.329Z,590.62
2022-10-20T08:31:36.511Z,590.62
2022-10-20T08:32:35.297Z,601.88
2022-10-20T08:33:35.275Z,601.88
2022-10-20T08:34:35.498Z,613.12
2022-10-20T08:35:35.742Z,618.75
2022-10-20T08:36:38.876Z,624.38
2022-10-20T08:37:36.618Z,641.25
2022-10-20T08:38:36.628Z,663.75
2022-10-20T08:39:36.981Z,675.00
2022-10-20T08:40:40.614Z,675.00
2022-10-20T08:42:02.807Z,675.00
2022-10-20T08:42:38.893Z,714.38
2022-10-20T08:43:38.176Z,708.75
2022-10-20T08:44:38.394Z,720.00
2022-10-20T08:45:38.756Z,680.62
2022-10-20T08:46:40.922Z,703.12
2022-10-20T08:47:39.561Z,725.62
2022-10-20T08:48:39.472Z,731.25
2022-10-20T08:49:41.734Z,725.62
2022-10-20T08:50:41.097Z,770.62
2022-10-20T08:51:42.335Z,793.12
2022-10-20T08:52:42.502Z,832.50
2022-10-20T08:53:41.928Z,838.12
2022-10-20T08:54:41.237Z,843.75
2022-10-20T08:55:42.248Z,956.25
2022-10-20T08:56:43.711Z,888.75
2022-10-20T08:57:42.678Z,832.50
2022-10-20T08:58:42.384Z,810.00
2022-10-20T08:59:42.609Z,832.50
2022-10-20T09:00:43.819Z,838.12
2022-10-20T09:01:44.047Z,810.00
2022-10-20T09:02:45.314Z,793.12
2022-10-20T09:03:45.505Z,866.25
2022-10-20T09:04:44.968Z,883.12
2022-10-20T09:05:47.209Z,883.12
2022-10-20T09:06:45.550Z,905.62
2022-10-20T09:07:44.970Z,933.75
2022-10-20T09:08:47.166Z,933.75
2022-10-20T09:09:45.431Z,883.12
2022-10-20T09:10:45.682Z,849.38
2022-10-20T09:11:45.915Z,871.88
2022-10-20T09:12:46.137Z,866.25
2022-10-20T09:14:46.769Z,860.62
2022-10-20T09:15:49.031Z,866.25
2022-10-20T09:17:02.618Z,883.12
2022-10-20T09:17:48.562Z,832.50
2022-10-20T09:18:47.846Z,855.00
2022-10-20T09:19:50.033Z,843.75
2022-10-20T09:20:49.322Z,798.75
2022-10-20T09:21:50.600Z,793.12
2022-10-20T09:22:48.889Z,832.50
2022-10-20T09:23:49.285Z,815.62
2022-10-20T09:24:51.469Z,776.25
2022-10-20T09:25:53.124Z,843.75
2022-10-20T09:27:05.516Z,883.12
2022-10-20T09:27:51.401Z,1057.50
2022-10-20T09:29:12.068Z,1108.12
2022-10-20T09:29:55.324Z,1046.25
2022-10-20T09:30:52.233Z,1164.38
2022-10-20T09:31:52.512Z,1113.75
2022-10-20T09:32:51.804Z,1344.38
2022-10-20T09:33:52.040Z,1350.00
2022-10-20T09:34:55.674Z,1276.88
2022-10-20T09:35:52.502Z,1164.38
2022-10-20T09:36:54.675Z,1321.88
2022-10-20T09:37:52.982Z,1153.12
2022-10-20T09:38:53.305Z,945.00
2022-10-20T09:39:55.826Z,1316.25
2022-10-20T09:40:56.680Z,1288.12
2022-10-20T09:41:54.252Z,1321.88
2022-10-20T09:42:56.443Z,1271.25
2022-10-20T09:43:57.221Z,1175.62
2022-10-20T09:44:55.022Z,1231.88
2022-10-20T09:45:56.378Z,1406.25
2022-10-20T09:46:55.659Z,1490.62
2022-10-20T09:47:57.841Z,1451.25
2022-10-20T09:48:56.159Z,1316.25
2022-10-20T09:50:00.799Z,1136.25
2022-10-20T09:50:58.780Z,1175.62
2022-10-20T09:51:58.867Z,1136.25
2022-10-20T09:52:59.043Z,1096.88
2022-10-20T09:53:57.593Z,1040.62
2022-10-20T09:54:57.814Z,1141.88
2022-10-20T09:56:00.026Z,1181.25
2022-10-20T09:57:01.167Z,1153.12
2022-10-20T09:57:58.724Z,1153.12
2022-10-20T09:58:58.990Z,1254.38
2022-10-20T10:00:08.659Z,1271.25
2022-10-20T10:01:00.512Z,1248.75
2022-10-20T10:02:01.647Z,1305.00
2022-10-20T10:03:00.076Z,1423.12
2022-10-20T10:04:00.296Z,1535.62
2022-10-20T10:05:00.526Z,1591.88
2022-10-20T10:06:01.636Z,1575.00
2022-10-20T10:07:02.972Z,1597.50
2022-10-20T10:08:01.402Z,1597.50
2022-10-20T10:09:01.679Z,1653.75
2022-10-20T10:10:05.405Z,1710.00
2022-10-20T10:11:03.212Z,1721.25
2022-10-20T10:12:02.496Z,1738.12
2022-10-20T10:14:02.999Z,1378.12
2022-10-20T10:15:05.178Z,1406.25
2022-10-20T10:16:05.340Z,1496.25
2022-10-20T10:17:03.878Z,1518.75
2022-10-20T10:18:07.009Z,1535.62
2022-10-20T10:19:06.297Z,1608.75
2022-10-20T10:20:05.861Z,1580.62
2022-10-20T10:21:06.085Z,1642.50
2022-10-20T10:22:07.311Z,1636.88
2022-10-20T10:23:05.601Z,1552.50
2022-10-20T10:24:07.780Z,1479.38
2022-10-20T10:25:06.195Z,1518.75
2022-10-20T10:26:08.379Z,1535.62
2022-10-20T10:27:08.557Z,1563.75
2022-10-20T10:28:07.103Z,1631.25
2022-10-20T10:29:07.321Z,1591.88
2022-10-20T10:30:09.511Z,1608.75
2022-10-20T10:31:07.922Z,1648.12
2022-10-20T10:32:08.274Z,1715.62
2022-10-20T10:33:08.506Z,1620.00
2022-10-20T10:34:08.731Z,1586.25
2022-10-20T10:35:10.901Z,1648.12
2022-10-20T10:36:09.197Z,1608.75
2022-10-20T10:37:09.450Z,1631.25
2022-10-20T10:38:11.606Z,1659.38
2022-10-20T10:39:10.033Z,1597.50
2022-10-20T10:40:12.201Z,1580.62
2022-10-20T10:41:12.621Z,1614.38
2022-10-20T10:42:10.791Z,1580.62
2022-10-20T10:43:12.962Z,1524.38
2022-10-20T10:44:11.255Z,1563.75
2022-10-20T10:45:13.432Z,1563.75
2022-10-20T10:46:11.736Z,1597.50
2022-10-20T10:47:11.953Z,1580.62
2022-10-20T10:48:12.302Z,1608.75
2022-10-20T10:49:12.628Z,1659.38
2022-10-20T10:50:13.756Z,1608.75
2022-10-20T10:51:16.398Z,1653.75
2022-10-20T10:52:13.444Z,1620.00
2022-10-20T10:53:13.683Z,1535.62
2022-10-20T10:54:16.836Z,1546.88
2022-10-20T10:55:43.750Z,1170.00
2022-10-20T10:56:15.408Z,731.25
2022-10-20T10:57:16.569Z,585.00
2022-10-20T10:58:16.733Z,495.00
2022-10-20T10:59:16.883Z,466.88
2022-10-20T11:00:17.452Z,461.25
2022-10-20T11:01:17.826Z,483.75
2022-10-20T11:02:17.001Z,635.62
2022-10-20T11:03:18.326Z,990.00
2022-10-20T11:04:16.753Z,1350.00
2022-10-20T11:06:17.281Z,1473.75
2022-10-20T11:07:19.462Z,1265.62
2022-10-20T11:08:19.639Z,1018.12
2022-10-20T11:09:19.642Z,883.12
2022-10-20T11:10:19.309Z,877.50
2022-10-20T11:11:20.625Z,939.38
2022-10-20T11:12:20.811Z,680.62
2022-10-20T11:13:23.044Z,601.88
2022-10-20T11:14:20.612Z,618.75
2022-10-20T11:15:20.869Z,742.50
2022-10-20T11:16:22.091Z,1006.88
2022-10-20T11:17:22.266Z,776.25
2022-10-20T11:18:20.684Z,804.38
2022-10-20T11:19:22.863Z,1451.25
2022-10-20T11:20:21.322Z,759.38
2022-10-20T11:21:21.536Z,781.88
2022-10-20T11:22:23.723Z,714.38
2022-10-20T11:23:22.158Z,686.25
2022-10-20T11:24:24.325Z,691.88
2022-10-20T11:25:23.600Z,720.00
2022-10-20T11:26:25.385Z,731.25
2022-10-20T11:27:24.236Z,748.12
2022-10-20T11:28:23.512Z,787.50
2022-10-20T11:29:24.687Z,849.38
2022-10-20T11:30:24.812Z,860.62
2022-10-20T11:31:26.181Z,894.38
2022-10-20T11:32:24.482Z,939.38
2022-10-20T11:33:24.695Z,961.88
2022-10-20T11:34:26.873Z,939.38
2022-10-20T11:35:28.072Z,973.12
2022-10-20T11:36:25.620Z,950.62
2022-10-20T11:37:25.840Z,900.00
2022-10-20T11:38:26.196Z,900.00
2022-10-20T11:39:26.415Z,900.00
2022-10-20T11:40:29.560Z,905.62
2022-10-20T11:41:26.986Z,900.00
2022-10-20T11:42:28.264Z,883.12
2022-10-20T11:43:29.524Z,922.50
2022-10-20T11:44:27.939Z,978.75
2022-10-20T11:45:31.085Z,1040.62
2022-10-20T11:46:28.393Z,973.12
2022-10-20T11:47:28.762Z,1006.88
2022-10-20T11:48:29.926Z,1074.38
2022-10-20T11:49:29.203Z,1215.00
2022-10-20T11:50:31.395Z,1293.75
2022-10-20T11:51:29.804Z,1524.38
2022-10-20T11:52:30.151Z,1698.75
2022-10-20T11:53:30.369Z,1648.12
2022-10-20T11:54:32.542Z,1743.75
2022-10-20T11:55:33.697Z,1895.62
2022-10-20T11:56:31.249Z,1788.75
2022-10-20T11:57:31.479Z,1766.25
2022-10-20T11:58:31.705Z,1468.12
2022-10-20T11:59:31.938Z,1108.12
2022-10-20T12:00:35.573Z,1338.75
2022-10-20T12:01:32.627Z,1980.00
2022-10-20T12:02:32.815Z,2165.62
2022-10-20T12:03:33.157Z,2160.00
2022-10-20T12:04:33.378Z,2092.50
2022-10-20T12:05:35.670Z,2002.50
2022-10-20T12:06:35.806Z,1957.50
2022-10-20T12:07:34.220Z,1946.25
2022-10-20T12:08:34.587Z,1884.38
2022-10-20T12:09:34.809Z,1867.50
2022-10-20T12:10:36.817Z,1861.88
2022-10-20T12:11:35.379Z,1828.12
2022-10-20T12:12:35.994Z,1794.38
2022-10-20T12:13:35.886Z,1721.25
2022-10-20T12:14:36.118Z,1676.25
2022-10-20T12:15:39.254Z,1597.50
2022-10-20T12:16:36.803Z,1552.50
2022-10-20T12:17:38.994Z,1563.75
2022-10-20T12:18:37.283Z,1575.00
2022-10-20T12:19:37.640Z,1569.38
2022-10-20T12:20:41.331Z,1608.75
2022-10-20T12:21:38.123Z,1631.25
2022-10-20T12:22:40.297Z,1614.38
2022-10-20T12:23:38.688Z,1552.50
2022-10-20T12:24:41.775Z,1535.62
2022-10-20T12:25:42.447Z,1344.38
2022-10-20T12:26:42.562Z,1282.50
2022-10-20T12:27:42.695Z,1361.25
2022-10-20T12:28:40.131Z,1366.88
2022-10-20T12:29:40.360Z,1361.25
2022-10-20T12:30:40.582Z,1372.50
2022-10-20T12:31:40.814Z,1378.12
2022-10-20T12:32:42.998Z,1299.38
2022-10-20T12:33:41.287Z,1265.62
2022-10-20T12:34:41.513Z,1226.25
2022-10-20T12:35:45.181Z,1203.75
2022-10-20T12:36:41.988Z,1192.50
2022-10-20T12:37:46.276Z,1220.62
2022-10-20T12:38:42.612Z,1254.38
2022-10-20T12:39:43.598Z,1338.75
2022-10-20T12:40:43.246Z,1350.00
2022-10-20T12:41:45.850Z,1305.00
2022-10-20T12:42:45.626Z,1321.88
2022-10-20T12:43:44.047Z,1310.62
2022-10-20T12:44:45.096Z,1231.88
2022-10-20T12:45:46.520Z,1316.25
2022-10-20T12:46:46.748Z,1350.00
2022-10-20T12:47:46.869Z,1310.62
2022-10-20T12:48:46.231Z,1355.62
2022-10-20T12:49:45.516Z,1361.25
2022-10-20T12:50:45.779Z,1333.12
2022-10-20T12:51:46.003Z,1282.50
2022-10-20T12:52:48.176Z,1231.88
2022-10-20T12:53:46.492Z,1220.62
2022-10-20T12:54:48.709Z,1231.88
2022-10-20T12:55:47.023Z,1226.25
2022-10-20T12:56:47.228Z,1158.75
2022-10-20T12:57:50.872Z,1158.75
2022-10-20T12:58:47.804Z,1170.00